createdAt,value
2018-09-27T00:00:20.081Z,8.90
2018-09-27T00:02:48.672Z,8.80
2018-09-27T00:05:17.145Z,8.70
2018-09-27T00:07:45.664Z,8.70
2018-09-27T00:10:14.151Z,8.70
2018-09-27T00:12:42.829Z,8.70
2018-09-27T00:15:11.296Z,8.80
2018-09-27T00:17:39.795Z,8.90
2018-09-27T00:20:08.312Z,8.90
2018-09-27T00:22:36.820Z,8.90
2018-09-27T00:25:05.739Z,8.90
2018-09-27T00:27:34.224Z,8.80
2018-09-27T00:30:02.760Z,9.00
2018-09-27T00:32:31.256Z,9.10
2018-09-27T00:34:59.806Z,9.10
2018-09-27T00:37:28.273Z,8.90
2018-09-27T00:39:57.136Z,8.80
2018-09-27T00:42:25.696Z,8.70
2018-09-27T00:44:54.172Z,8.70
2018-09-27T00:47:23.064Z,8.70
2018-09-27T00:49:51.533Z,8.70
2018-09-27T00:52:19.998Z,8.50
2018-09-27T00:54:48.449Z,8.40
2018-09-27T00:57:16.787Z,8.40
2018-09-27T00:59:45.279Z,8.40
2018-09-27T01:02:13.636Z,8.40
2018-09-27T01:04:42.453Z,8.20
2018-09-27T01:07:10.973Z,8.30
2018-09-27T01:09:39.396Z,8.30
2018-09-27T01:12:07.770Z,8.30
2018-09-27T01:14:36.176Z,8.30
2018-09-27T01:17:04.536Z,8.20
2018-09-27T01:19:33.078Z,8.10
2018-09-27T01:22:01.468Z,8.00
2018-09-27T01:24:29.848Z,7.80
2018-09-27T01:26:58.568Z,7.80
2018-09-27T01:29:27.008Z,7.80
2018-09-27T01:31:55.358Z,7.80
2018-09-27T01:34:23.949Z,7.90
2018-09-27T01:36:52.290Z,8.00
2018-09-27T01:39:20.682Z,7.90
2018-09-27T01:41:49.306Z,7.80
2018-09-27T01:44:17.645Z,7.80
2018-09-27T01:46:46.305Z,7.90
2018-09-27T01:49:14.747Z,7.90
2018-09-27T01:51:43.129Z,8.00
2018-09-27T01:54:11.498Z,7.90
2018-09-27T01:56:39.849Z,7.80
2018-09-27T01:59:08.372Z,7.70
2018-09-27T02:01:36.851Z,7.60
2018-09-27T02:04:05.172Z,7.60
2018-09-27T02:06:33.681Z,7.50
2018-09-27T02:09:02.190Z,7.50
2018-09-27T02:11:30.653Z,7.60
2018-09-27T02:13:58.996Z,7.70
2018-09-27T02:16:27.356Z,7.60
2018-09-27T02:18:56.040Z,7.70
2018-09-27T02:21:24.547Z,7.90
2018-09-27T02:23:52.916Z,7.90
2018-09-27T02:26:21.284Z,7.90
2018-09-27T02:28:49.724Z,7.80
2018-09-27T02:31:18.091Z,7.90
2018-09-27T02:33:46.457Z,7.90
2018-09-27T02:36:14.920Z,7.90
2018-09-27T02:38:43.289Z,7.90
2018-09-27T02:41:11.681Z,7.80
2018-09-27T02:43:40.177Z,7.70
2018-09-27T02:46:08.640Z,7.70
2018-09-27T02:48:37.001Z,7.80
2018-09-27T02:51:05.565Z,7.90
2018-09-27T02:53:34.047Z,7.90
2018-09-27T02:56:02.722Z,7.90
2018-09-27T02:58:31.412Z,7.90
2018-09-27T03:00:59.829Z,7.90
2018-09-27T03:03:28.238Z,7.80
2018-09-27T03:05:56.633Z,7.70
2018-09-27T03:08:25.173Z,7.70
2018-09-27T03:10:54.015Z,7.60
2018-09-27T03:13:22.502Z,7.60
2018-09-27T03:15:51.337Z,7.60
2018-09-27T03:18:19.746Z,7.60
2018-09-27T03:20:48.161Z,7.60
2018-09-27T03:23:16.501Z,7.60
2018-09-27T03:25:44.870Z,7.60
2018-09-27T03:28:13.208Z,7.60
2018-09-27T03:30:41.672Z,7.70
2018-09-27T03:33:10.036Z,7.80
2018-09-27T03:35:38.412Z,7.80
2018-09-27T03:38:07.002Z,7.70
2018-09-27T03:40:35.387Z,7.70
2018-09-27T03:43:03.725Z,7.70
2018-09-27T03:45:32.128Z,7.80
2018-09-27T03:48:00.484Z,7.70
2018-09-27T03:50:28.978Z,7.60
2018-09-27T03:52:57.358Z,7.60
2018-09-27T03:55:25.780Z,7.60
2018-09-27T03:57:54.135Z,7.60
2018-09-27T04:00:22.548Z,7.60
2018-09-27T04:02:51.012Z,7.60
2018-09-27T04:05:19.535Z,7.60
2018-09-27T04:10:22.076Z,7.60
2018-09-27T04:12:50.425Z,7.60
2018-09-27T04:15:18.881Z,7.60
2018-09-27T04:17:47.433Z,7.60
2018-09-27T04:20:15.816Z,7.50
2018-09-27T04:22:44.149Z,7.50
2018-09-27T04:25:12.514Z,7.50
2018-09-27T04:27:41.057Z,7.40
2018-09-27T04:30:09.517Z,7.30
2018-09-27T04:32:37.887Z,7.20
2018-09-27T04:35:06.293Z,7.20
2018-09-27T04:37:34.645Z,7.20
2018-09-27T04:40:03.085Z,7.10
2018-09-27T04:42:31.630Z,7.10
2018-09-27T04:44:59.989Z,7.10
2018-09-27T04:47:28.410Z,7.20
2018-09-27T04:49:56.949Z,7.30
2018-09-27T04:52:25.432Z,7.30
2018-09-27T04:54:53.857Z,7.30
2018-09-27T04:57:22.342Z,7.30
2018-09-27T04:59:50.798Z,7.30
2018-09-27T05:02:19.285Z,7.30
2018-09-27T05:04:47.629Z,7.30
2018-09-27T05:07:16.025Z,7.30
2018-09-27T05:09:44.631Z,7.40
2018-09-27T05:12:12.865Z,7.40
2018-09-27T05:14:41.225Z,7.30
2018-09-27T05:17:09.692Z,7.40
2018-09-27T05:19:38.077Z,7.40
2018-09-27T05:22:06.628Z,7.30
2018-09-27T05:24:34.958Z,7.40
2018-09-27T05:27:03.350Z,7.30
2018-09-27T05:29:31.961Z,7.30
2018-09-27T05:32:00.320Z,7.30
2018-09-27T05:34:28.776Z,7.30
2018-09-27T05:36:57.330Z,7.30
2018-09-27T05:39:25.790Z,7.20
2018-09-27T05:41:54.245Z,7.20
2018-09-27T05:44:22.612Z,7.30
2018-09-27T05:46:51.220Z,7.60
2018-09-27T05:49:19.657Z,7.80
2018-09-27T05:51:48.148Z,8.20
2018-09-27T05:54:16.552Z,8.80
2018-09-27T05:56:45.165Z,9.40
2018-09-27T05:59:13.615Z,9.90
2018-09-27T06:01:42.066Z,10.20
2018-09-27T06:04:10.608Z,10.10
2018-09-27T06:06:39.132Z,9.60
2018-09-27T06:09:10.069Z,9.20
2018-09-27T06:11:38.489Z,9.10
2018-09-27T06:14:07.482Z,9.20
2018-09-27T06:16:37.313Z,9.20
2018-09-27T06:19:05.957Z,9.00
2018-09-27T06:21:34.564Z,8.90
2018-09-27T06:24:02.889Z,8.70
2018-09-27T06:26:31.259Z,8.60
2018-09-27T06:28:59.649Z,8.50
2018-09-27T06:31:28.003Z,8.50
2018-09-27T06:33:56.351Z,8.50
2018-09-27T06:36:24.819Z,8.50
2018-09-27T06:38:53.520Z,8.60
2018-09-27T06:41:22.242Z,8.70
2018-09-27T06:43:50.577Z,8.90
2018-09-27T06:46:18.946Z,9.50
2018-09-27T06:48:47.491Z,9.70
2018-09-27T06:51:15.780Z,9.60
2018-09-27T06:53:44.256Z,9.60
2018-09-27T06:56:12.695Z,9.60
2018-09-27T06:58:41.148Z,9.60
2018-09-27T07:01:09.952Z,9.70
2018-09-27T07:03:38.492Z,9.80
2018-09-27T07:06:07.148Z,9.70
2018-09-27T07:08:35.704Z,9.70
2018-09-27T07:11:04.014Z,9.80
2018-09-27T07:13:32.556Z,9.90
2018-09-27T07:16:00.930Z,10.00
2018-09-27T07:18:29.292Z,10.10
2018-09-27T07:20:57.891Z,10.20
2018-09-27T07:23:26.370Z,10.20
2018-09-27T07:25:54.912Z,10.30
2018-09-27T07:28:23.329Z,10.30
2018-09-27T07:30:51.668Z,10.50
2018-09-27T07:33:20.147Z,10.60
2018-09-27T07:35:48.484Z,10.80
2018-09-27T07:38:16.832Z,10.80
2018-09-27T07:40:45.385Z,10.90
2018-09-27T07:43:13.746Z,11.00
2018-09-27T07:45:42.178Z,11.20
2018-09-27T07:48:10.967Z,11.50
2018-09-27T07:50:39.524Z,11.90
2018-09-27T07:53:07.995Z,12.00
2018-09-27T07:55:36.404Z,12.00
2018-09-27T07:58:04.981Z,12.00
2018-09-27T08:00:33.488Z,12.00
2018-09-27T08:03:01.957Z,12.20
2018-09-27T08:05:37.028Z,12.30
2018-09-27T08:08:05.824Z,12.30
2018-09-27T08:10:34.336Z,12.40
2018-09-27T08:13:02.833Z,12.40
2018-09-27T08:15:31.252Z,12.50
2018-09-27T08:17:59.726Z,12.70
2018-09-27T08:20:28.194Z,12.80
2018-09-27T08:22:56.528Z,12.80
2018-09-27T08:25:25.016Z,12.80
2018-09-27T08:27:53.366Z,13.10
2018-09-27T08:30:22.007Z,13.30
2018-09-27T08:32:50.421Z,13.60
2018-09-27T08:35:18.860Z,13.70
2018-09-27T08:37:47.257Z,13.80
2018-09-27T08:40:15.805Z,13.90
2018-09-27T08:42:44.183Z,14.10
2018-09-27T08:45:12.914Z,14.10
2018-09-27T08:47:41.013Z,14.10
2018-09-27T08:50:09.444Z,14.10
2018-09-27T08:52:37.825Z,14.20
2018-09-27T08:55:06.596Z,14.30
2018-09-27T08:57:35.047Z,14.50
2018-09-27T09:00:03.417Z,14.80
2018-09-27T09:02:31.928Z,14.90
2018-09-27T09:05:00.519Z,14.90
2018-09-27T09:07:28.955Z,15.10
2018-09-27T09:09:57.311Z,15.00
2018-09-27T09:12:25.743Z,15.20
2018-09-27T09:14:54.337Z,15.50
2018-09-27T09:17:22.756Z,15.70
2018-09-27T09:19:51.133Z,15.80
2018-09-27T09:22:20.525Z,16.00
2018-09-27T09:24:48.921Z,16.40
2018-09-27T09:27:17.629Z,16.60
2018-09-27T09:29:46.019Z,17.20
2018-09-27T09:32:14.396Z,17.30
2018-09-27T09:34:42.805Z,17.40
2018-09-27T09:37:11.184Z,17.30
2018-09-27T09:39:39.579Z,17.30
2018-09-27T09:42:08.237Z,17.30
2018-09-27T09:44:36.688Z,17.50
2018-09-27T09:47:05.145Z,17.50
2018-09-27T09:49:33.772Z,17.60
2018-09-27T09:52:02.168Z,17.60
2018-09-27T09:54:30.541Z,17.80
2018-09-27T09:56:58.985Z,17.90
2018-09-27T09:59:27.352Z,18.20
2018-09-27T10:01:55.765Z,18.40
2018-09-27T10:04:24.140Z,18.70
2018-09-27T10:06:52.677Z,19.00
2018-09-27T10:09:21.138Z,19.80
2018-09-27T10:11:49.562Z,21.50
2018-09-27T10:14:17.952Z,22.50
2018-09-27T10:16:46.349Z,23.20
2018-09-27T10:19:15.094Z,23.70
2018-09-27T10:21:43.747Z,24.20
2018-09-27T10:24:12.045Z,24.70
2018-09-27T10:26:40.675Z,24.90
2018-09-27T10:29:09.238Z,25.20
2018-09-27T10:31:37.744Z,25.00
2018-09-27T10:34:06.151Z,25.10
2018-09-27T10:36:34.621Z,25.00
2018-09-27T10:39:03.638Z,25.00
2018-09-27T10:41:32.276Z,25.00
2018-09-27T10:44:00.659Z,24.90
2018-09-27T10:46:29.054Z,25.00
2018-09-27T10:48:57.457Z,24.40
2018-09-27T10:51:25.909Z,24.40
2018-09-27T10:53:54.272Z,24.80
2018-09-27T10:56:22.697Z,24.60
2018-09-27T10:58:51.380Z,24.20
2018-09-27T11:01:19.833Z,24.20
2018-09-27T11:03:48.400Z,24.70
2018-09-27T11:06:16.961Z,24.10
2018-09-27T11:08:45.553Z,24.70
2018-09-27T11:11:14.046Z,24.60
2018-09-27T11:13:42.425Z,24.50
2018-09-27T11:16:11.109Z,25.00
2018-09-27T11:18:39.536Z,24.80
2018-09-27T11:21:07.940Z,25.40
2018-09-27T11:23:36.348Z,25.30
2018-09-27T11:26:04.889Z,25.40
2018-09-27T11:28:38.820Z,25.20
2018-09-27T11:31:12.636Z,25.40
2018-09-27T11:33:41.059Z,25.40
2018-09-27T11:36:09.828Z,25.30
2018-09-27T11:38:38.242Z,25.40
2018-09-27T11:41:07.003Z,25.40
2018-09-27T11:43:35.390Z,25.90
2018-09-27T11:46:03.871Z,26.00
2018-09-27T11:48:32.464Z,25.70
2018-09-27T11:51:00.877Z,25.60
2018-09-27T11:53:29.303Z,26.00
2018-09-27T11:55:57.879Z,26.40
2018-09-27T11:58:26.305Z,25.90
2018-09-27T12:00:54.762Z,26.00
2018-09-27T12:03:23.177Z,26.40
2018-09-27T12:05:51.609Z,26.20
2018-09-27T12:08:20.069Z,26.20
2018-09-27T12:10:49.248Z,26.10
2018-09-27T12:13:17.698Z,26.50
2018-09-27T12:15:46.294Z,26.30
2018-09-27T12:18:14.694Z,26.50
2018-09-27T12:20:43.250Z,26.10
2018-09-27T12:23:11.713Z,26.00
2018-09-27T12:25:40.069Z,26.40
2018-09-27T12:28:08.496Z,26.80
2018-09-27T12:30:36.918Z,26.80
2018-09-27T12:33:05.376Z,27.00
2018-09-27T12:35:33.919Z,26.90
2018-09-27T12:38:02.606Z,27.50
2018-09-27T12:40:31.346Z,28.00
2018-09-27T12:42:59.772Z,27.20
2018-09-27T12:45:28.188Z,27.40
2018-09-27T12:47:56.599Z,27.40
2018-09-27T12:50:25.008Z,27.60
2018-09-27T12:52:53.569Z,27.50
2018-09-27T12:55:21.968Z,27.10
2018-09-27T12:57:50.404Z,26.70
2018-09-27T13:00:19.058Z,26.30
2018-09-27T13:02:47.660Z,26.20
2018-09-27T13:05:15.944Z,26.20
2018-09-27T13:07:44.353Z,25.80
2018-09-27T13:10:12.821Z,26.20
2018-09-27T13:12:41.515Z,26.50
2018-09-27T13:15:09.958Z,25.90
2018-09-27T13:17:38.334Z,26.40
2018-09-27T13:20:06.967Z,26.70
2018-09-27T13:22:35.458Z,26.30
2018-09-27T13:25:04.051Z,26.40
2018-09-27T13:27:32.633Z,26.50
2018-09-27T13:30:01.235Z,26.10
2018-09-27T13:32:29.528Z,25.50
2018-09-27T13:34:58.025Z,25.40
2018-09-27T13:37:26.401Z,24.70
2018-09-27T13:39:54.888Z,24.80
2018-09-27T13:42:23.308Z,25.00
2018-09-27T13:44:51.730Z,24.90
2018-09-27T13:47:20.222Z,24.40
2018-09-27T13:49:49.085Z,24.00
2018-09-27T13:52:17.695Z,24.00
2018-09-27T13:54:46.130Z,24.20
2018-09-27T13:57:14.641Z,23.60
2018-09-27T13:59:43.000Z,23.50
2018-09-27T14:02:11.396Z,23.40
2018-09-27T14:04:39.822Z,23.30
2018-09-27T14:07:08.293Z,23.20
2018-09-27T14:09:36.776Z,23.10
2018-09-27T14:12:05.210Z,23.40
2018-09-27T14:14:33.862Z,23.60
2018-09-27T14:17:02.556Z,23.70
2018-09-27T14:19:30.861Z,23.90
2018-09-27T14:21:59.337Z,24.00
2018-09-27T14:24:28.025Z,23.90
2018-09-27T14:26:56.536Z,23.80
2018-09-27T14:29:24.959Z,23.70
2018-09-27T14:31:53.844Z,23.50
2018-09-27T14:34:22.266Z,23.60
2018-09-27T14:36:50.721Z,23.50
2018-09-27T14:39:19.242Z,23.20
2018-09-27T14:41:47.752Z,23.10
2018-09-27T14:44:16.163Z,23.20
2018-09-27T14:46:44.557Z,23.30
2018-09-27T14:49:13.057Z,23.40
2018-09-27T14:51:41.544Z,23.50
2018-09-27T14:54:10.004Z,23.50
2018-09-27T14:56:38.456Z,23.40
2018-09-27T14:59:06.844Z,23.10
2018-09-27T15:01:35.608Z,23.10
2018-09-27T15:04:04.100Z,23.10
2018-09-27T15:06:32.640Z,23.10
2018-09-27T15:09:01.152Z,23.10
2018-09-27T15:11:29.854Z,23.10
2018-09-27T15:13:58.316Z,23.00
2018-09-27T15:16:26.797Z,22.90
2018-09-27T15:18:55.248Z,23.00
2018-09-27T15:21:23.701Z,22.90
2018-09-27T15:23:52.114Z,22.90
2018-09-27T15:26:20.534Z,22.80
2018-09-27T15:28:48.960Z,22.80
2018-09-27T15:31:17.430Z,22.80
2018-09-27T15:33:45.896Z,22.70
2018-09-27T15:36:14.298Z,22.80
2018-09-27T15:38:42.823Z,22.70
2018-09-27T15:41:11.265Z,22.60
2018-09-27T15:43:39.972Z,22.50
2018-09-27T15:46:08.590Z,22.50
2018-09-27T15:48:37.000Z,22.40
2018-09-27T15:51:05.571Z,22.40
2018-09-27T15:53:34.024Z,22.30
2018-09-27T15:56:02.519Z,22.30
2018-09-27T15:58:31.236Z,22.20
2018-09-27T16:00:59.808Z,22.10
2018-09-27T16:03:28.234Z,22.10
2018-09-27T16:05:56.755Z,22.00
2018-09-27T16:08:25.250Z,22.00
2018-09-27T16:10:53.731Z,22.00
2018-09-27T16:13:22.216Z,22.00
2018-09-27T16:15:50.618Z,21.90
2018-09-27T16:18:19.016Z,21.80
2018-09-27T16:20:47.608Z,21.70
2018-09-27T16:23:16.177Z,21.70
2018-09-27T16:25:44.906Z,21.50
2018-09-27T16:28:13.386Z,21.40
2018-09-27T16:30:41.814Z,21.30
2018-09-27T16:33:10.336Z,21.10
2018-09-27T16:35:38.835Z,21.10
2018-09-27T16:38:07.316Z,21.00
2018-09-27T16:40:35.813Z,21.00
2018-09-27T16:43:04.249Z,20.80
2018-09-27T16:45:32.651Z,20.80
2018-09-27T16:48:01.070Z,20.60
2018-09-27T16:50:29.516Z,20.50
2018-09-27T16:52:57.948Z,20.30
2018-09-27T16:55:26.441Z,20.10
2018-09-27T16:57:54.922Z,19.90
2018-09-27T17:00:23.394Z,19.70
2018-09-27T17:02:51.782Z,19.60
2018-09-27T17:05:20.290Z,19.40
2018-09-27T17:07:48.712Z,19.20
2018-09-27T17:10:17.201Z,19.10
2018-09-27T17:12:46.078Z,19.00
2018-09-27T17:15:14.527Z,18.90
2018-09-27T17:17:43.078Z,18.80
2018-09-27T17:20:11.609Z,18.60
2018-09-27T17:22:40.308Z,18.40
2018-09-27T17:25:08.945Z,18.30
2018-09-27T17:27:37.517Z,18.10
2018-09-27T17:30:06.327Z,17.90
2018-09-27T17:32:35.029Z,17.70
2018-09-27T17:35:03.465Z,17.50
2018-09-27T17:37:31.926Z,17.20
2018-09-27T17:40:00.612Z,17.00
2018-09-27T17:42:29.009Z,16.80
2018-09-27T17:44:57.633Z,16.80
2018-09-27T17:47:26.077Z,16.60
2018-09-27T17:49:54.596Z,16.40
2018-09-27T17:52:23.036Z,16.20
2018-09-27T17:54:51.501Z,16.20
2018-09-27T17:57:22.916Z,16.20
2018-09-27T17:59:53.581Z,16.20
2018-09-27T18:02:23.137Z,15.90
2018-09-27T18:04:51.720Z,15.70
2018-09-27T18:07:20.638Z,15.50
2018-09-27T18:09:49.214Z,15.40
2018-09-27T18:12:17.634Z,15.30
2018-09-27T18:14:46.045Z,15.20
2018-09-27T18:17:14.604Z,15.10
2018-09-27T18:19:43.398Z,15.00
2018-09-27T18:22:11.782Z,15.00
2018-09-27T18:24:40.198Z,15.20
2018-09-27T18:27:08.636Z,15.30
2018-09-27T18:29:37.244Z,15.40
2018-09-27T18:32:05.690Z,15.40
2018-09-27T18:34:34.229Z,15.30
2018-09-27T18:37:02.758Z,15.20
2018-09-27T18:39:32.177Z,15.00
2018-09-27T18:42:00.713Z,14.90
2018-09-27T18:44:29.205Z,14.80
2018-09-27T18:46:57.729Z,14.80
2018-09-27T18:49:26.196Z,14.80
2018-09-27T18:51:57.638Z,14.70
2018-09-27T18:54:26.285Z,14.70
2018-09-27T18:56:54.709Z,14.60
2018-09-27T18:59:23.157Z,14.50
2018-09-27T19:01:51.601Z,14.40
2018-09-27T19:04:20.131Z,14.30
2018-09-27T19:06:48.609Z,14.20
2018-09-27T19:09:17.053Z,14.20
2018-09-27T19:11:45.574Z,14.30
2018-09-27T19:14:14.053Z,14.30
2018-09-27T19:16:42.743Z,14.30
2018-09-27T19:19:11.132Z,14.20
2018-09-27T19:21:39.824Z,14.00
2018-09-27T19:24:08.437Z,13.80
2018-09-27T19:26:37.093Z,13.50
2018-09-27T19:29:05.629Z,13.40
2018-09-27T19:31:34.068Z,13.30
2018-09-27T19:34:02.759Z,13.50
2018-09-27T19:36:31.204Z,13.40
2018-09-27T19:38:59.905Z,13.40
2018-09-27T19:41:29.004Z,13.40
2018-09-27T19:43:57.492Z,13.30
2018-09-27T19:46:25.912Z,13.10
2018-09-27T19:48:54.341Z,13.10
2018-09-27T19:51:24.301Z,13.00
2018-09-27T19:53:53.156Z,13.00
2018-09-27T19:56:21.831Z,13.00
2018-09-27T19:58:50.284Z,13.00
2018-09-27T20:01:18.953Z,13.10
2018-09-27T20:03:47.572Z,13.10
2018-09-27T20:06:16.057Z,13.00
2018-09-27T20:08:44.484Z,12.90
2018-09-27T20:11:13.150Z,12.90
2018-09-27T20:13:41.598Z,12.80
2018-09-27T20:16:10.056Z,12.80
2018-09-27T20:18:38.466Z,12.80
2018-09-27T20:21:07.065Z,12.80
2018-09-27T20:23:35.650Z,12.90
2018-09-27T20:26:04.163Z,13.00
2018-09-27T20:28:32.934Z,13.10
2018-09-27T20:31:01.617Z,13.20
2018-09-27T20:33:30.026Z,13.20
2018-09-27T20:35:58.448Z,13.20
2018-09-27T20:38:27.010Z,13.30
2018-09-27T20:40:55.399Z,13.30
2018-09-27T20:43:24.140Z,13.40
2018-09-27T20:45:53.089Z,13.30
2018-09-27T20:48:21.848Z,13.30
2018-09-27T20:50:50.722Z,13.40
2018-09-27T20:53:19.140Z,13.40
2018-09-27T20:55:47.543Z,13.30
2018-09-27T20:58:16.006Z,13.20
2018-09-27T21:00:44.453Z,13.10
2018-09-27T21:03:12.896Z,13.10
2018-09-27T21:05:41.227Z,13.00
2018-09-27T21:08:09.625Z,13.00
2018-09-27T21:10:38.065Z,13.10
2018-09-27T21:13:06.487Z,13.10
2018-09-27T21:15:34.926Z,13.10
2018-09-27T21:18:03.310Z,12.90
2018-09-27T21:20:31.696Z,12.90
2018-09-27T21:23:00.109Z,12.80
2018-09-27T21:25:28.511Z,12.70
2018-09-27T21:27:56.905Z,12.60
2018-09-27T21:30:25.273Z,12.50
2018-09-27T21:32:53.668Z,12.50
2018-09-27T21:35:22.069Z,12.40
2018-09-27T21:37:50.552Z,12.30
2018-09-27T21:40:18.998Z,12.20
2018-09-27T21:42:47.394Z,12.10
2018-09-27T21:45:15.788Z,12.00
2018-09-27T21:47:44.153Z,11.80
2018-09-27T21:50:12.873Z,11.70
2018-09-27T21:52:41.113Z,11.60
2018-09-27T21:55:09.488Z,11.40
2018-09-27T21:57:37.884Z,11.40
2018-09-27T22:00:06.763Z,11.30
2018-09-27T22:02:35.228Z,11.30
2018-09-27T22:05:03.631Z,11.40
2018-09-27T22:07:32.018Z,11.50
2018-09-27T22:10:00.521Z,11.50
2018-09-27T22:12:28.944Z,11.50
2018-09-27T22:14:57.346Z,11.50
2018-09-27T22:17:25.729Z,11.60
2018-09-27T22:19:54.165Z,11.70
2018-09-27T22:22:22.546Z,11.50
2018-09-27T22:24:50.970Z,11.30
2018-09-27T22:27:19.350Z,11.10
2018-09-27T22:29:47.836Z,10.90
2018-09-27T22:32:16.249Z,10.80
2018-09-27T22:34:44.647Z,10.80
2018-09-27T22:37:13.016Z,10.80
2018-09-27T22:39:41.412Z,10.90
2018-09-27T22:42:10.285Z,10.80
2018-09-27T22:44:38.748Z,10.70
2018-09-27T22:47:07.504Z,10.70
2018-09-27T22:49:36.148Z,10.60
2018-09-27T22:52:04.533Z,10.50
2018-09-27T22:54:33.027Z,10.60
2018-09-27T22:57:01.437Z,10.50
2018-09-27T22:59:29.824Z,10.60
2018-09-27T23:01:58.206Z,10.40
2018-09-27T23:04:26.600Z,10.30
2018-09-27T23:06:54.999Z,10.10
2018-09-27T23:09:23.373Z,9.90
2018-09-27T23:11:51.896Z,9.80
2018-09-27T23:14:20.388Z,9.80
2018-09-27T23:16:48.761Z,9.70
2018-09-27T23:19:17.152Z,9.60
2018-09-27T23:21:45.640Z,9.70
2018-09-27T23:24:14.172Z,9.80
2018-09-27T23:26:42.559Z,9.90
2018-09-27T23:29:10.956Z,9.80
2018-09-27T23:31:39.460Z,9.80
2018-09-27T23:34:08.078Z,9.80
2018-09-27T23:36:36.456Z,9.90
2018-09-27T23:39:06.564Z,10.00
2018-09-27T23:41:34.924Z,9.90
2018-09-27T23:44:03.377Z,9.80
2018-09-27T23:46:31.757Z,9.70
2018-09-27T23:49:00.156Z,9.80
2018-09-27T23:51:28.788Z,10.00
2018-09-27T23:53:57.246Z,9.90
2018-09-27T23:56:25.743Z,9.80
2018-09-27T23:58:54.148Z,9.80
